sensor_id;sensor_type;location;lat;lon;timestamp;temperature;humidity
27200;DHT22;14714;48.106;11.546;2023-02-18T00:00:05;11.20;99.90
27200;DHT22;14714;48.106;11.546;2023-02-18T00:02:32;11.10;99.90
27200;DHT22;14714;48.106;11.546;2023-02-18T00:04:59;11.00;99.90
27200;DHT22;14714;48.106;11.546;2023-02-18T00:07:25;11.00;99.90
27200;DHT22;14714;48.106;11.546;2023-02-18T00:09:52;11.00;99.90
27200;DHT22;14714;48.106;11.546;2023-02-18T00:12:19;11.00;99.90
27200;DHT22;14714;48.106;11.546;2023-02-18T00:14:45;11.00;99.90
27200;DHT22;14714;48.106;11.546;2023-02-18T00:17:12;11.00;99.90
27200;DHT22;14714;48.106;11.546;2023-02-18T00:19:39;11.00;99.90
27200;DHT22;14714;48.106;11.546;2023-02-18T00:22:05;10.90;99.90
27200;DHT22;14714;48.106;11.546;2023-02-18T00:24:32;10.90;99.90
27200;DHT22;14714;48.106;11.546;2023-02-18T00:26:58;10.90;99.90
27200;DHT22;14714;48.106;11.546;2023-02-18T00:29:25;10.90;99.90
27200;DHT22;14714;48.106;11.546;2023-02-18T00:31:52;10.90;99.90
27200;DHT22;14714;48.106;11.546;2023-02-18T00:34:19;10.80;99.90
27200;DHT22;14714;48.106;11.546;2023-02-18T00:36:45;10.80;99.90
27200;DHT22;14714;48.106;11.546;2023-02-18T00:39:12;10.80;99.90
27200;DHT22;14714;48.106;11.546;2023-02-18T00:41:38;10.70;99.90
27200;DHT22;14714;48.106;11.546;2023-02-18T00:44:05;10.60;99.90
27200;DHT22;14714;48.106;11.546;2023-02-18T00:46:32;10.60;99.90
27200;DHT22;14714;48.106;11.546;2023-02-18T00:48:59;10.60;99.90
27200;DHT22;14714;48.106;11.546;2023-02-18T00:51:26;10.50;99.90
27200;DHT22;14714;48.106;11.546;2023-02-18T00:53:53;10.50;99.90
27200;DHT22;14714;48.106;11.546;2023-02-18T00:56:19;10.50;99.90
27200;DHT22;14714;48.106;11.546;2023-02-18T00:58:46;10.40;99.90
27200;DHT22;14714;48.106;11.546;2023-02-18T01:01:13;10.40;99.90
27200;DHT22;14714;48.106;11.546;2023-02-18T01:03:40;10.30;99.90
27200;DHT22;14714;48.106;11.546;2023-02-18T01:06:08;10.30;99.90
27200;DHT22;14714;48.106;11.546;2023-02-18T01:08:35;10.30;99.90
27200;DHT22;14714;48.106;11.546;2023-02-18T01:11:02;10.30;99.90
27200;DHT22;14714;48.106;11.546;2023-02-18T01:13:30;10.40;99.90
27200;DHT22;14714;48.106;11.546;2023-02-18T01:15:56;10.40;99.90
27200;DHT22;14714;48.106;11.546;2023-02-18T01:18:24;10.50;99.90
27200;DHT22;14714;48.106;11.546;2023-02-18T01:20:51;10.50;99.90
27200;DHT22;14714;48.106;11.546;2023-02-18T01:23:18;10.50;99.90
27200;DHT22;14714;48.106;11.546;2023-02-18T01:25:44;10.50;99.90
27200;DHT22;14714;48.106;11.546;2023-02-18T01:28:12;10.50;99.90
27200;DHT22;14714;48.106;11.546;2023-02-18T01:30:39;10.50;99.90
27200;DHT22;14714;48.106;11.546;2023-02-18T01:33:06;10.50;99.90
27200;DHT22;14714;48.106;11.546;2023-02-18T01:35:36;10.50;99.90
27200;DHT22;14714;48.106;11.546;2023-02-18T01:38:02;10.50;99.90
27200;DHT22;14714;48.106;11.546;2023-02-18T01:40:29;10.50;99.90
27200;DHT22;14714;48.106;11.546;2023-02-18T01:42:56;10.50;99.90
27200;DHT22;14714;48.106;11.546;2023-02-18T01:47:59;10.60;99.90
27200;DHT22;14714;48.106;11.546;2023-02-18T01:50:27;10.50;99.90
27200;DHT22;14714;48.106;11.546;2023-02-18T01:52:54;10.50;99.90
27200;DHT22;14714;48.106;11.546;2023-02-18T01:55:20;10.50;99.90
27200;DHT22;14714;48.106;11.546;2023-02-18T01:57:47;10.60;99.90
27200;DHT22;14714;48.106;11.546;2023-02-18T02:00:15;10.60;99.90
27200;DHT22;14714;48.106;11.546;2023-02-18T02:02:44;10.60;99.90
27200;DHT22;14714;48.106;11.546;2023-02-18T02:05:11;10.70;99.90
27200;DHT22;14714;48.106;11.546;2023-02-18T02:07:39;10.70;99.90
27200;DHT22;14714;48.106;11.546;2023-02-18T02:10:07;10.80;99.90
27200;DHT22;14714;48.106;11.546;2023-02-18T02:32:58;11.00;99.90
27200;DHT22;14714;48.106;11.546;2023-02-18T02:38:29;11.00;99.90
27200;DHT22;14714;48.106;11.546;2023-02-18T02:40:53;11.10;99.90
27200;DHT22;14714;48.106;11.546;2023-02-18T02:46:05;11.10;99.90
27200;DHT22;14714;48.106;11.546;2023-02-18T02:53:32;11.10;99.90
27200;DHT22;14714;48.106;11.546;2023-02-18T02:55:59;11.10;99.90
27200;DHT22;14714;48.106;11.546;2023-02-18T02:58:26;11.20;99.90
27200;DHT22;14714;48.106;11.546;2023-02-18T03:11:11;11.20;99.90
27200;DHT22;14714;48.106;11.546;2023-02-18T03:18:45;11.20;99.90
27200;DHT22;14714;48.106;11.546;2023-02-18T03:23:54;11.10;99.90
27200;DHT22;14714;48.106;11.546;2023-02-18T03:26:23;11.20;99.90
27200;DHT22;14714;48.106;11.546;2023-02-18T03:28:50;11.10;99.90
27200;DHT22;14714;48.106;11.546;2023-02-18T03:31:19;11.10;99.90
27200;DHT22;14714;48.106;11.546;2023-02-18T03:33:48;11.10;99.90
27200;DHT22;14714;48.106;11.546;2023-02-18T03:36:17;11.10;99.90
27200;DHT22;14714;48.106;11.546;2023-02-18T03:38:55;11.20;99.90
27200;DHT22;14714;48.106;11.546;2023-02-18T03:41:24;11.20;99.90
27200;DHT22;14714;48.106;11.546;2023-02-18T03:43:57;11.20;99.90
27200;DHT22;14714;48.106;11.546;2023-02-18T03:46:26;11.20;99.90
27200;DHT22;14714;48.106;11.546;2023-02-18T03:48:53;11.20;99.90
27200;DHT22;14714;48.106;11.546;2023-02-18T03:51:19;11.20;99.90
27200;DHT22;14714;48.106;11.546;2023-02-18T03:53:47;11.20;99.90
27200;DHT22;14714;48.106;11.546;2023-02-18T03:56:13;11.20;99.90
27200;DHT22;14714;48.106;11.546;2023-02-18T03:58:40;11.20;99.90
27200;DHT22;14714;48.106;11.546;2023-02-18T04:01:06;11.20;99.90
27200;DHT22;14714;48.106;11.546;2023-02-18T04:03:33;11.20;99.90
27200;DHT22;14714;48.106;11.546;2023-02-18T04:06:00;11.20;99.90
27200;DHT22;14714;48.106;11.546;2023-02-18T04:08:26;11.20;99.90
27200;DHT22;14714;48.106;11.546;2023-02-18T04:10:53;11.20;99.90
27200;DHT22;14714;48.106;11.546;2023-02-18T04:13:20;11.10;99.90
27200;DHT22;14714;48.106;11.546;2023-02-18T04:15:50;11.20;99.90
27200;DHT22;14714;48.106;11.546;2023-02-18T04:18:17;11.10;99.90
27200;DHT22;14714;48.106;11.546;2023-02-18T04:20:44;11.10;99.90
27200;DHT22;14714;48.106;11.546;2023-02-18T04:23:11;11.10;99.90
27200;DHT22;14714;48.106;11.546;2023-02-18T04:25:38;11.10;99.90
27200;DHT22;14714;48.106;11.546;2023-02-18T04:28:05;11.10;99.90
27200;DHT22;14714;48.106;11.546;2023-02-18T04:30:32;11.10;99.90
27200;DHT22;14714;48.106;11.546;2023-02-18T04:32:59;11.10;99.90
27200;DHT22;14714;48.106;11.546;2023-02-18T04:35:25;11.10;99.90
27200;DHT22;14714;48.106;11.546;2023-02-18T04:37:52;11.10;99.90
27200;DHT22;14714;48.106;11.546;2023-02-18T04:40:19;11.00;99.90
27200;DHT22;14714;48.106;11.546;2023-02-18T04:42:45;11.00;99.90
27200;DHT22;14714;48.106;11.546;2023-02-18T04:45:12;11.00;99.90
27200;DHT22;14714;48.106;11.546;2023-02-18T04:47:39;11.00;99.90
27200;DHT22;14714;48.106;11.546;2023-02-18T04:50:05;11.00;99.90
27200;DHT22;14714;48.106;11.546;2023-02-18T04:52:32;11.00;99.90
27200;DHT22;14714;48.106;11.546;2023-02-18T04:54:59;11.00;99.90
27200;DHT22;14714;48.106;11.546;2023-02-18T04:57:26;11.00;99.90
27200;DHT22;14714;48.106;11.546;2023-02-18T04:59:52;11.00;99.90
27200;DHT22;14714;48.106;11.546;2023-02-18T05:02:19;10.90;99.90
27200;DHT22;14714;48.106;11.546;2023-02-18T05:04:46;10.90;99.90
27200;DHT22;14714;48.106;11.546;2023-02-18T05:07:12;10.90;99.90
27200;DHT22;14714;48.106;11.546;2023-02-18T05:09:39;10.90;99.90
27200;DHT22;14714;48.106;11.546;2023-02-18T05:12:06;10.90;99.90
27200;DHT22;14714;48.106;11.546;2023-02-18T05:14:32;10.90;99.90
27200;DHT22;14714;48.106;11.546;2023-02-18T05:16:59;10.90;99.90
27200;DHT22;14714;48.106;11.546;2023-02-18T05:19:25;10.90;99.90
27200;DHT22;14714;48.106;11.546;2023-02-18T05:21:52;10.90;99.90
27200;DHT22;14714;48.106;11.546;2023-02-18T05:24:19;10.90;99.90
27200;DHT22;14714;48.106;11.546;2023-02-18T05:26:45;10.90;99.90
27200;DHT22;14714;48.106;11.546;2023-02-18T05:29:12;10.90;99.90
27200;DHT22;14714;48.106;11.546;2023-02-18T05:31:39;10.90;99.90
27200;DHT22;14714;48.106;11.546;2023-02-18T05:34:05;10.90;99.90
27200;DHT22;14714;48.106;11.546;2023-02-18T05:36:32;10.90;99.90
27200;DHT22;14714;48.106;11.546;2023-02-18T05:38:59;10.90;99.90
27200;DHT22;14714;48.106;11.546;2023-02-18T05:41:25;10.90;99.90
27200;DHT22;14714;48.106;11.546;2023-02-18T05:43:52;10.90;99.90
27200;DHT22;14714;48.106;11.546;2023-02-18T05:46:37;10.90;99.90
27200;DHT22;14714;48.106;11.546;2023-02-18T05:49:04;10.90;99.90
27200;DHT22;14714;48.106;11.546;2023-02-18T05:51:31;10.90;99.90
27200;DHT22;14714;48.106;11.546;2023-02-18T05:53:57;10.90;99.90
27200;DHT22;14714;48.106;11.546;2023-02-18T05:56:24;10.90;99.90
27200;DHT22;14714;48.106;11.546;2023-02-18T05:58:51;10.90;99.90
27200;DHT22;14714;48.106;11.546;2023-02-18T06:01:17;10.90;99.90
27200;DHT22;14714;48.106;11.546;2023-02-18T06:03:44;10.90;99.90
27200;DHT22;14714;48.106;11.546;2023-02-18T06:06:10;10.90;99.90
27200;DHT22;14714;48.106;11.546;2023-02-18T06:08:37;10.90;99.90
27200;DHT22;14714;48.106;11.546;2023-02-18T06:11:04;10.90;99.90
27200;DHT22;14714;48.106;11.546;2023-02-18T06:13:31;10.90;99.90
27200;DHT22;14714;48.106;11.546;2023-02-18T06:15:57;10.90;99.90
27200;DHT22;14714;48.106;11.546;2023-02-18T06:18:24;10.90;99.90
27200;DHT22;14714;48.106;11.546;2023-02-18T06:20:51;11.00;99.90
27200;DHT22;14714;48.106;11.546;2023-02-18T06:23:17;11.00;99.90
27200;DHT22;14714;48.106;11.546;2023-02-18T06:25:46;11.00;99.90
27200;DHT22;14714;48.106;11.546;2023-02-18T06:28:13;11.00;99.90
27200;DHT22;14714;48.106;11.546;2023-02-18T06:30:40;11.00;99.90
27200;DHT22;14714;48.106;11.546;2023-02-18T06:33:06;11.00;99.90
27200;DHT22;14714;48.106;11.546;2023-02-18T06:35:34;11.00;99.90
27200;DHT22;14714;48.106;11.546;2023-02-18T06:38:00;11.00;99.90
27200;DHT22;14714;48.106;11.546;2023-02-18T06:40:27;11.00;99.90
27200;DHT22;14714;48.106;11.546;2023-02-18T06:42:54;11.00;99.90
27200;DHT22;14714;48.106;11.546;2023-02-18T06:45:20;11.00;99.90
27200;DHT22;14714;48.106;11.546;2023-02-18T06:47:47;11.10;99.90
27200;DHT22;14714;48.106;11.546;2023-02-18T06:50:14;11.10;99.90
27200;DHT22;14714;48.106;11.546;2023-02-18T06:52:41;11.10;99.90
27200;DHT22;14714;48.106;11.546;2023-02-18T06:55:07;11.10;99.90
27200;DHT22;14714;48.106;11.546;2023-02-18T06:57:37;11.20;99.90
27200;DHT22;14714;48.106;11.546;2023-02-18T07:00:04;11.20;99.90
27200;DHT22;14714;48.106;11.546;2023-02-18T07:02:31;11.20;99.90
27200;DHT22;14714;48.106;11.546;2023-02-18T07:04:57;11.30;99.90
27200;DHT22;14714;48.106;11.546;2023-02-18T07:07:24;11.30;99.90
27200;DHT22;14714;48.106;11.546;2023-02-18T07:09:51;11.40;99.90
27200;DHT22;14714;48.106;11.546;2023-02-18T07:12:17;11.40;99.90
27200;DHT22;14714;48.106;11.546;2023-02-18T07:14:44;11.40;99.90
27200;DHT22;14714;48.106;11.546;2023-02-18T07:17:11;11.50;99.90
27200;DHT22;14714;48.106;11.546;2023-02-18T07:19:38;11.50;99.90
27200;DHT22;14714;48.106;11.546;2023-02-18T07:22:04;11.50;99.90
27200;DHT22;14714;48.106;11.546;2023-02-18T07:24:31;11.60;99.90
27200;DHT22;14714;48.106;11.546;2023-02-18T07:26:58;11.60;99.90
27200;DHT22;14714;48.106;11.546;2023-02-18T07:29:24;11.60;99.90
27200;DHT22;14714;48.106;11.546;2023-02-18T07:31:51;11.60;99.90
27200;DHT22;14714;48.106;11.546;2023-02-18T07:34:18;11.60;99.90
27200;DHT22;14714;48.106;11.546;2023-02-18T07:36:45;11.60;99.90
27200;DHT22;14714;48.106;11.546;2023-02-18T07:39:11;11.60;99.90
27200;DHT22;14714;48.106;11.546;2023-02-18T07:41:38;11.60;99.90
27200;DHT22;14714;48.106;11.546;2023-02-18T07:44:05;11.60;99.90
27200;DHT22;14714;48.106;11.546;2023-02-18T07:46:31;11.60;99.90
27200;DHT22;14714;48.106;11.546;2023-02-18T07:48:58;11.60;99.90
27200;DHT22;14714;48.106;11.546;2023-02-18T07:51:25;11.60;99.90
27200;DHT22;14714;48.106;11.546;2023-02-18T07:53:51;11.60;99.90
27200;DHT22;14714;48.106;11.546;2023-02-18T07:56:18;11.60;99.90
27200;DHT22;14714;48.106;11.546;2023-02-18T07:58:44;11.60;99.90
27200;DHT22;14714;48.106;11.546;2023-02-18T08:01:12;11.70;99.90
27200;DHT22;14714;48.106;11.546;2023-02-18T08:03:40;11.60;99.90
27200;DHT22;14714;48.106;11.546;2023-02-18T08:06:07;11.70;99.90
27200;DHT22;14714;48.106;11.546;2023-02-18T08:08:34;11.70;99.90
27200;DHT22;14714;48.106;11.546;2023-02-18T08:11:02;11.70;99.90
27200;DHT22;14714;48.106;11.546;2023-02-18T08:13:44;11.70;99.90
27200;DHT22;14714;48.106;11.546;2023-02-18T08:16:12;11.80;99.90
27200;DHT22;14714;48.106;11.546;2023-02-18T08:18:39;11.80;99.90
27200;DHT22;14714;48.106;11.546;2023-02-18T08:21:06;11.80;99.90
27200;DHT22;14714;48.106;11.546;2023-02-18T08:23:33;11.90;99.90
27200;DHT22;14714;48.106;11.546;2023-02-18T08:25:59;11.90;99.90
27200;DHT22;14714;48.106;11.546;2023-02-18T08:28:26;11.90;99.90
27200;DHT22;14714;48.106;11.546;2023-02-18T08:30:53;12.00;99.90
27200;DHT22;14714;48.106;11.546;2023-02-18T08:33:20;12.10;99.90
27200;DHT22;14714;48.106;11.546;2023-02-18T08:35:48;12.10;99.90
27200;DHT22;14714;48.106;11.546;2023-02-18T08:38:15;12.20;99.90
27200;DHT22;14714;48.106;11.546;2023-02-18T08:40:42;12.30;99.90
27200;DHT22;14714;48.106;11.546;2023-02-18T08:43:08;12.40;99.90
27200;DHT22;14714;48.106;11.546;2023-02-18T08:45:35;12.50;99.90
27200;DHT22;14714;48.106;11.546;2023-02-18T08:48:04;12.60;99.90
27200;DHT22;14714;48.106;11.546;2023-02-18T08:50:45;12.80;99.90
27200;DHT22;14714;48.106;11.546;2023-02-18T08:53:12;13.00;99.90
27200;DHT22;14714;48.106;11.546;2023-02-18T08:55:39;13.20;99.90
27200;DHT22;14714;48.106;11.546;2023-02-18T08:58:06;13.70;99.90
27200;DHT22;14714;48.106;11.546;2023-02-18T09:00:33;14.00;99.90
27200;DHT22;14714;48.106;11.546;2023-02-18T09:02:59;14.20;99.90
27200;DHT22;14714;48.106;11.546;2023-02-18T09:05:26;14.30;99.90
27200;DHT22;14714;48.106;11.546;2023-02-18T09:07:52;14.30;99.90
27200;DHT22;14714;48.106;11.546;2023-02-18T09:10:19;14.10;99.90
27200;DHT22;14714;48.106;11.546;2023-02-18T09:12:46;14.10;99.90
27200;DHT22;14714;48.106;11.546;2023-02-18T09:15:13;14.20;99.90
27200;DHT22;14714;48.106;11.546;2023-02-18T09:17:40;14.30;99.90
27200;DHT22;14714;48.106;11.546;2023-02-18T09:20:07;14.40;99.90
27200;DHT22;14714;48.106;11.546;2023-02-18T09:22:33;14.50;99.90
27200;DHT22;14714;48.106;11.546;2023-02-18T09:25:00;14.50;99.90
27200;DHT22;14714;48.106;11.546;2023-02-18T09:27:27;14.40;99.90
27200;DHT22;14714;48.106;11.546;2023-02-18T09:29:53;14.30;99.90
27200;DHT22;14714;48.106;11.546;2023-02-18T09:32:20;14.30;99.90
27200;DHT22;14714;48.106;11.546;2023-02-18T09:35:00;14.20;99.90
27200;DHT22;14714;48.106;11.546;2023-02-18T09:37:27;14.30;99.90
27200;DHT22;14714;48.106;11.546;2023-02-18T09:39:54;14.40;99.90
27200;DHT22;14714;48.106;11.546;2023-02-18T09:42:22;14.60;99.90
27200;DHT22;14714;48.106;11.546;2023-02-18T09:44:50;14.60;99.90
27200;DHT22;14714;48.106;11.546;2023-02-18T09:47:23;14.60;99.90
27200;DHT22;14714;48.106;11.546;2023-02-18T09:49:53;14.70;99.90
27200;DHT22;14714;48.106;11.546;2023-02-18T09:52:21;14.80;99.90
27200;DHT22;14714;48.106;11.546;2023-02-18T09:54:49;15.10;99.90
27200;DHT22;14714;48.106;11.546;2023-02-18T09:59:56;15.70;99.90
27200;DHT22;14714;48.106;11.546;2023-02-18T10:02:26;15.80;99.90
27200;DHT22;14714;48.106;11.546;2023-02-18T10:04:53;15.70;99.90
27200;DHT22;14714;48.106;11.546;2023-02-18T10:07:22;15.50;99.90
27200;DHT22;14714;48.106;11.546;2023-02-18T10:09:54;15.40;99.90
27200;DHT22;14714;48.106;11.546;2023-02-18T10:12:23;15.30;99.90
27200;DHT22;14714;48.106;11.546;2023-02-18T10:14:51;15.20;99.90
27200;DHT22;14714;48.106;11.546;2023-02-18T10:17:18;15.20;99.90
27200;DHT22;14714;48.106;11.546;2023-02-18T10:19:46;15.40;99.90
27200;DHT22;14714;48.106;11.546;2023-02-18T10:22:13;15.70;99.90
27200;DHT22;14714;48.106;11.546;2023-02-18T10:27:34;16.00;99.70
27200;DHT22;14714;48.106;11.546;2023-02-18T10:30:48;16.00;99.40
27200;DHT22;14714;48.106;11.546;2023-02-18T10:32:51;16.10;99.20
27200;DHT22;14714;48.106;11.546;2023-02-18T10:35:24;15.90;98.80
27200;DHT22;14714;48.106;11.546;2023-02-18T10:38:02;15.90;98.80
27200;DHT22;14714;48.106;11.546;2023-02-18T10:43:10;15.70;98.90
27200;DHT22;14714;48.106;11.546;2023-02-18T10:51:11;16.10;98.00
27200;DHT22;14714;48.106;11.546;2023-02-18T10:53:40;16.10;98.00
27200;DHT22;14714;48.106;11.546;2023-02-18T10:56:12;16.10;97.60
27200;DHT22;14714;48.106;11.546;2023-02-18T10:58:59;16.10;97.40
27200;DHT22;14714;48.106;11.546;2023-02-18T11:01:27;16.00;97.00
27200;DHT22;14714;48.106;11.546;2023-02-18T11:04:03;16.00;97.00
27200;DHT22;14714;48.106;11.546;2023-02-18T11:06:31;16.00;97.10
27200;DHT22;14714;48.106;11.546;2023-02-18T11:08:59;16.00;96.60
27200;DHT22;14714;48.106;11.546;2023-02-18T11:11:28;16.00;96.40
27200;DHT22;14714;48.106;11.546;2023-02-18T11:13:56;16.00;96.50
27200;DHT22;14714;48.106;11.546;2023-02-18T11:16:23;16.10;96.50
27200;DHT22;14714;48.106;11.546;2023-02-18T11:19:01;16.20;96.40
27200;DHT22;14714;48.106;11.546;2023-02-18T11:21:31;16.40;96.20
27200;DHT22;14714;48.106;11.546;2023-02-18T11:24:05;16.60;95.40
27200;DHT22;14714;48.106;11.546;2023-02-18T11:26:33;16.80;94.50
27200;DHT22;14714;48.106;11.546;2023-02-18T11:29:03;16.90;93.70
27200;DHT22;14714;48.106;11.546;2023-02-18T11:31:36;16.90;93.50
27200;DHT22;14714;48.106;11.546;2023-02-18T11:34:04;17.00;93.80
27200;DHT22;14714;48.106;11.546;2023-02-18T11:36:32;17.10;92.80
27200;DHT22;14714;48.106;11.546;2023-02-18T11:39:01;17.10;92.50
27200;DHT22;14714;48.106;11.546;2023-02-18T11:41:34;17.20;92.50
27200;DHT22;14714;48.106;11.546;2023-02-18T11:44:02;17.30;92.30
27200;DHT22;14714;48.106;11.546;2023-02-18T11:46:30;17.20;91.90
27200;DHT22;14714;48.106;11.546;2023-02-18T11:49:01;17.30;91.90
27200;DHT22;14714;48.106;11.546;2023-02-18T11:51:36;17.30;91.50
27200;DHT22;14714;48.106;11.546;2023-02-18T11:54:20;17.30;91.70
27200;DHT22;14714;48.106;11.546;2023-02-18T11:56:55;17.30;91.00
27200;DHT22;14714;48.106;11.546;2023-02-18T11:59:22;17.30;91.30
27200;DHT22;14714;48.106;11.546;2023-02-18T12:01:50;17.40;91.00
27200;DHT22;14714;48.106;11.546;2023-02-18T12:04:19;17.40;90.90
27200;DHT22;14714;48.106;11.546;2023-02-18T12:06:51;17.40;90.70
27200;DHT22;14714;48.106;11.546;2023-02-18T12:09:27;17.50;90.40
27200;DHT22;14714;48.106;11.546;2023-02-18T12:11:56;17.60;89.50
27200;DHT22;14714;48.106;11.546;2023-02-18T12:14:25;17.30;89.30
27200;DHT22;14714;48.106;11.546;2023-02-18T12:17:13;17.20;90.10
27200;DHT22;14714;48.106;11.546;2023-02-18T12:19:50;17.20;90.30
27200;DHT22;14714;48.106;11.546;2023-02-18T12:22:21;17.10;90.00
27200;DHT22;14714;48.106;11.546;2023-02-18T12:35:28;17.30;86.90
27200;DHT22;14714;48.106;11.546;2023-02-18T12:48:35;16.90;89.90
27200;DHT22;14714;48.106;11.546;2023-02-18T12:54:36;17.00;89.50
27200;DHT22;14714;48.106;11.546;2023-02-18T13:01:38;16.90;88.30
27200;DHT22;14714;48.106;11.546;2023-02-18T13:04:30;16.80;88.30
27200;DHT22;14714;48.106;11.546;2023-02-18T13:07:18;16.70;88.70
27200;DHT22;14714;48.106;11.546;2023-02-18T13:12:30;16.70;89.30
27200;DHT22;14714;48.106;11.546;2023-02-18T13:15:15;16.70;88.90
27200;DHT22;14714;48.106;11.546;2023-02-18T13:17:43;16.70;88.80
27200;DHT22;14714;48.106;11.546;2023-02-18T13:20:16;16.60;88.40
27200;DHT22;14714;48.106;11.546;2023-02-18T13:22:44;16.40;89.30
27200;DHT22;14714;48.106;11.546;2023-02-18T13:25:11;16.30;90.00
27200;DHT22;14714;48.106;11.546;2023-02-18T13:27:43;16.40;90.40
27200;DHT22;14714;48.106;11.546;2023-02-18T13:30:57;16.40;90.50
27200;DHT22;14714;48.106;11.546;2023-02-18T13:35:42;16.40;90.30
27200;DHT22;14714;48.106;11.546;2023-02-18T13:40:41;16.40;90.50
27200;DHT22;14714;48.106;11.546;2023-02-18T13:43:28;16.40;90.60
27200;DHT22;14714;48.106;11.546;2023-02-18T13:46:08;16.30;90.60
27200;DHT22;14714;48.106;11.546;2023-02-18T13:49:22;16.20;90.80
27200;DHT22;14714;48.106;11.546;2023-02-18T13:53:58;16.10;91.20
27200;DHT22;14714;48.106;11.546;2023-02-18T13:56:27;16.00;91.20
27200;DHT22;14714;48.106;11.546;2023-02-18T13:58:57;16.00;91.40
27200;DHT22;14714;48.106;11.546;2023-02-18T14:01:36;15.90;91.40
27200;DHT22;14714;48.106;11.546;2023-02-18T14:04:31;15.80;91.90
27200;DHT22;14714;48.106;11.546;2023-02-18T14:09:37;15.70;91.70
27200;DHT22;14714;48.106;11.546;2023-02-18T14:14:49;15.60;91.90
27200;DHT22;14714;48.106;11.546;2023-02-18T14:19:53;15.50;91.50
27200;DHT22;14714;48.106;11.546;2023-02-18T14:22:24;15.50;91.80
27200;DHT22;14714;48.106;11.546;2023-02-18T14:24:55;15.50;91.80
27200;DHT22;14714;48.106;11.546;2023-02-18T14:27:22;15.40;91.30
27200;DHT22;14714;48.106;11.546;2023-02-18T14:29:50;15.30;91.30
27200;DHT22;14714;48.106;11.546;2023-02-18T14:32:17;15.30;91.70
27200;DHT22;14714;48.106;11.546;2023-02-18T14:40:50;15.00;91.70
27200;DHT22;14714;48.106;11.546;2023-02-18T14:50:45;14.70;92.60
27200;DHT22;14714;48.106;11.546;2023-02-18T14:53:19;14.70;92.90
27200;DHT22;14714;48.106;11.546;2023-02-18T14:55:47;14.60;93.10
27200;DHT22;14714;48.106;11.546;2023-02-18T15:00:42;14.50;93.00
27200;DHT22;14714;48.106;11.546;2023-02-18T15:03:13;14.40;93.00
27200;DHT22;14714;48.106;11.546;2023-02-18T15:05:40;14.40;92.80
27200;DHT22;14714;48.106;11.546;2023-02-18T15:08:13;14.30;93.00
27200;DHT22;14714;48.106;11.546;2023-02-18T15:13:08;14.20;93.10
27200;DHT22;14714;48.106;11.546;2023-02-18T15:15:38;14.10;93.00
27200;DHT22;14714;48.106;11.546;2023-02-18T15:18:10;14.10;92.80
27200;DHT22;14714;48.106;11.546;2023-02-18T15:20:39;14.00;93.00
27200;DHT22;14714;48.106;11.546;2023-02-18T15:23:08;14.00;93.50
27200;DHT22;14714;48.106;11.546;2023-02-18T15:25:37;14.00;93.40
27200;DHT22;14714;48.106;11.546;2023-02-18T15:28:04;14.00;93.20
27200;DHT22;14714;48.106;11.546;2023-02-18T15:30:31;13.90;93.10
27200;DHT22;14714;48.106;11.546;2023-02-18T15:32:58;13.90;93.00
27200;DHT22;14714;48.106;11.546;2023-02-18T15:35:27;13.80;92.80
27200;DHT22;14714;48.106;11.546;2023-02-18T15:37:56;13.80;92.90
27200;DHT22;14714;48.106;11.546;2023-02-18T15:40:23;13.80;92.70
27200;DHT22;14714;48.106;11.546;2023-02-18T15:42:51;13.80;92.70
27200;DHT22;14714;48.106;11.546;2023-02-18T15:45:23;13.70;92.70
27200;DHT22;14714;48.106;11.546;2023-02-18T15:47:52;13.60;92.60
27200;DHT22;14714;48.106;11.546;2023-02-18T15:50:23;13.60;92.60
27200;DHT22;14714;48.106;11.546;2023-02-18T15:52:50;13.50;92.80
27200;DHT22;14714;48.106;11.546;2023-02-18T15:55:38;13.40;93.00
27200;DHT22;14714;48.106;11.546;2023-02-18T15:58:18;13.40;93.20
27200;DHT22;14714;48.106;11.546;2023-02-18T16:00:48;13.30;93.50
27200;DHT22;14714;48.106;11.546;2023-02-18T16:05:46;13.20;93.70
27200;DHT22;14714;48.106;11.546;2023-02-18T16:08:22;13.10;93.80
27200;DHT22;14714;48.106;11.546;2023-02-18T16:10:58;13.10;93.90
27200;DHT22;14714;48.106;11.546;2023-02-18T16:13:28;13.10;94.10
27200;DHT22;14714;48.106;11.546;2023-02-18T16:15:56;13.00;94.30
27200;DHT22;14714;48.106;11.546;2023-02-18T16:18:27;13.00;94.40
27200;DHT22;14714;48.106;11.546;2023-02-18T16:20:56;12.90;94.50
27200;DHT22;14714;48.106;11.546;2023-02-18T16:23:25;12.90;94.70
27200;DHT22;14714;48.106;11.546;2023-02-18T16:25:52;12.90;94.90
27200;DHT22;14714;48.106;11.546;2023-02-18T16:28:23;12.80;95.00
27200;DHT22;14714;48.106;11.546;2023-02-18T16:30:50;12.80;95.00
27200;DHT22;14714;48.106;11.546;2023-02-18T16:33:16;12.70;95.10
27200;DHT22;14714;48.106;11.546;2023-02-18T16:35:43;12.70;95.20
27200;DHT22;14714;48.106;11.546;2023-02-18T16:38:19;12.60;95.30
27200;DHT22;14714;48.106;11.546;2023-02-18T16:40:47;12.60;95.50
27200;DHT22;14714;48.106;11.546;2023-02-18T16:43:15;12.60;95.50
27200;DHT22;14714;48.106;11.546;2023-02-18T16:45:43;12.60;95.60
27200;DHT22;14714;48.106;11.546;2023-02-18T16:48:14;12.60;95.60
27200;DHT22;14714;48.106;11.546;2023-02-18T16:50:42;12.60;95.70
27200;DHT22;14714;48.106;11.546;2023-02-18T16:53:09;12.50;95.90
27200;DHT22;14714;48.106;11.546;2023-02-18T16:55:37;12.50;95.80
27200;DHT22;14714;48.106;11.546;2023-02-18T16:58:03;12.40;95.90
27200;DHT22;14714;48.106;11.546;2023-02-18T17:00:30;12.50;96.00
27200;DHT22;14714;48.106;11.546;2023-02-18T17:02:57;12.40;96.00
27200;DHT22;14714;48.106;11.546;2023-02-18T17:05:28;12.40;96.00
27200;DHT22;14714;48.106;11.546;2023-02-18T17:07:57;12.40;96.00
27200;DHT22;14714;48.106;11.546;2023-02-18T17:10:25;12.40;96.00
27200;DHT22;14714;48.106;11.546;2023-02-18T17:12:51;12.40;95.90
27200;DHT22;14714;48.106;11.546;2023-02-18T17:15:28;12.30;95.90
27200;DHT22;14714;48.106;11.546;2023-02-18T17:17:55;12.30;95.90
27200;DHT22;14714;48.106;11.546;2023-02-18T17:20:27;12.30;95.90
27200;DHT22;14714;48.106;11.546;2023-02-18T17:22:56;12.30;95.80
27200;DHT22;14714;48.106;11.546;2023-02-18T17:25:28;12.30;96.00
27200;DHT22;14714;48.106;11.546;2023-02-18T17:27:56;12.20;95.90
27200;DHT22;14714;48.106;11.546;2023-02-18T17:30:23;12.30;95.90
27200;DHT22;14714;48.106;11.546;2023-02-18T17:32:49;12.20;95.90
27200;DHT22;14714;48.106;11.546;2023-02-18T17:35:17;12.20;96.00
27200;DHT22;14714;48.106;11.546;2023-02-18T17:37:44;12.20;96.00